Time;durP1;ratioP1;P1;durP2;ratioP2;P2;SDS_P1;SDS_P2;PMS_P1;PMS_P2;Temp;Humidity;BMP_temperature;BMP_pressure;BME280_temperature;BME280_humidity;BME280_pressure;Samples;Min_cycle;Max_cycle;Signal;HPM_P1;HPM_P2
2023/06/18 00:00:19;;;;;;;11.20;7.00;;;;;;;19.50;51.34;100116.02;1736219;82;21418;-55
2023/06/18 00:03:25;;;;;;;10.88;7.22;;;;;;;19.53;51.35;100113.61;1742782;81;21386;-54
2023/06/18 00:06:32;;;;;;;12.95;7.37;;;;;;;19.53;51.34;100112.75;1743307;82;21362;-54
2023/06/18 00:09:37;;;;;;;11.05;7.72;;;;;;;19.52;51.35;100116.62;1743286;82;21377;-54
2023/06/18 00:12:42;;;;;;;13.58;7.62;;;;;;;19.49;51.42;100106.83;1742717;81;21382;-54
2023/06/18 00:15:48;;;;;;;12.43;7.53;;;;;;;19.49;51.48;100108.78;1736092;82;21324;-55
2023/06/18 00:18:56;;;;;;;10.43;7.03;;;;;;;19.44;51.40;100108.65;1742184;82;21373;-54
2023/06/18 00:22:01;;;;;;;10.58;7.65;;;;;;;19.40;51.51;100112.44;1743257;81;21354;-55
2023/06/18 00:25:06;;;;;;;13.05;7.67;;;;;;;19.38;51.60;100110.44;1743237;81;21409;-55
2023/06/18 00:28:13;;;;;;;12.75;7.55;;;;;;;19.34;51.61;100107.85;1735999;82;21365;-54
2023/06/18 00:31:19;;;;;;;13.80;7.85;;;;;;;19.29;51.59;100106.33;1743197;82;21941;-54
2023/06/18 00:34:32;;;;;;;11.57;8.03;;;;;;;19.23;51.60;100108.08;1736143;82;21406;-54
2023/06/18 00:37:34;;;;;;;11.95;7.35;;;;;;;19.18;51.71;100107.98;1742844;81;21359;-56
2023/06/18 00:40:39;;;;;;;13.70;8.20;;;;;;;19.14;51.78;100121.16;1736465;82;21361;-55
2023/06/18 00:43:47;;;;;;;10.20;7.75;;;;;;;19.10;51.87;100124.11;1742206;81;21374;-54
2023/06/18 00:46:56;;;;;;;10.95;8.20;;;;;;;19.07;52.01;100121.28;1743068;81;21852;-55
2023/06/18 00:50:02;;;;;;;12.15;7.58;;;;;;;19.05;52.07;100128.99;1735928;82;21357;-54
2023/06/18 00:53:12;;;;;;;10.50;7.78;;;;;;;19.06;52.21;100125.13;1742523;81;21373;-54
2023/06/18 00:56:18;;;;;;;12.95;8.40;;;;;;;19.07;52.29;100137.08;1736601;80;21223;-55
2023/06/18 00:59:29;;;;;;;13.10;7.90;;;;;;;19.04;52.28;100132.83;1735629;82;21204;-55
2023/06/18 01:02:35;;;;;;;14.83;8.05;;;;;;;19.01;52.27;100133.30;1735656;81;21389;-56
2023/06/18 01:05:43;;;;;;;11.90;8.13;;;;;;;18.97;52.34;100129.86;1735660;81;21200;-56
2023/06/18 01:08:53;;;;;;;15.15;8.48;;;;;;;18.93;52.42;100131.42;1735612;82;21219;-54
2023/06/18 01:12:02;;;;;;;9.05;7.97;;;;;;;18.92;52.61;100134.73;1735445;82;21211;-54
2023/06/18 01:15:09;;;;;;;12.55;8.60;;;;;;;18.92;52.74;100129.72;1735605;81;21299;-55
2023/06/18 01:18:16;;;;;;;16.67;8.43;;;;;;;18.90;52.82;100128.56;1735625;81;21850;-54
2023/06/18 01:21:28;;;;;;;18.23;8.73;;;;;;;18.89;52.85;100128.80;1735677;81;21701;-56
2023/06/18 01:24:36;;;;;;;11.40;8.00;;;;;;;18.85;52.85;100129.80;1735500;81;21705;-54
2023/06/18 01:27:43;;;;;;;13.80;8.15;;;;;;;18.82;52.90;100131.66;1735578;81;21211;-55
2023/06/18 01:30:50;;;;;;;13.32;8.30;;;;;;;18.77;52.91;100130.16;1735625;82;21192;-55
2023/06/18 01:33:56;;;;;;;11.12;8.73;;;;;;;18.73;53.03;100134.47;1735717;82;21215;-55
2023/06/18 01:37:26;;;;;;;12.05;8.53;;;;;;;18.71;53.11;100135.80;1735842;81;21267;-54
2023/06/18 01:40:54;;;;;;;11.93;9.13;;;;;;;18.68;53.26;100127.39;1735576;81;21251;-54
2023/06/18 01:44:07;;;;;;;14.73;8.93;;;;;;;18.68;53.35;100132.11;1735661;81;21219;-55
2023/06/18 01:47:14;;;;;;;15.03;8.93;;;;;;;18.63;53.32;100136.13;1735824;81;21212;-54
2023/06/18 01:50:21;;;;;;;17.95;9.13;;;;;;;18.60;53.41;100140.19;1735538;82;21215;-54
2023/06/18 01:53:26;;;;;;;19.65;9.53;;;;;;;18.56;53.46;100141.75;1735595;82;21239;-54
2023/06/18 01:56:33;;;;;;;13.15;9.23;;;;;;;18.54;53.58;100145.28;1731680;81;21840;-54
2023/06/18 01:59:37;;;;;;;13.08;8.43;;;;;;;18.57;53.70;100146.20;1735585;81;21223;-55
2023/06/18 02:02:45;;;;;;;16.80;9.65;;;;;;;18.58;53.80;100148.45;1735510;81;21299;-54
2023/06/18 02:05:51;;;;;;;18.60;9.15;;;;;;;18.56;53.77;100148.68;1735640;81;21188;-56
2023/06/18 02:08:57;;;;;;;14.68;8.08;;;;;;;18.56;53.84;100143.67;1735600;82;21298;-55
2023/06/18 02:12:05;;;;;;;12.13;7.92;;;;;;;18.54;53.88;100150.83;1735667;82;21191;-54
2023/06/18 02:15:04;;;;;;;14.68;8.88;;;;;;;18.54;53.93;100145.28;1735795;82;21210;-54
2023/06/18 02:18:11;;;;;;;13.30;9.00;;;;;;;18.55;54.05;100151.69;1735603;81;21231;-53
2023/06/18 02:21:18;;;;;;;12.47;9.05;;;;;;;18.57;54.08;100151.75;1735752;81;21192;-54
2023/06/18 02:24:25;;;;;;;12.73;8.63;;;;;;;18.57;54.12;100153.14;1735677;81;21188;-53
2023/06/18 02:27:34;;;;;;;14.63;9.00;;;;;;;18.59;54.17;100160.69;1735607;81;21180;-55
2023/06/18 02:30:43;;;;;;;12.80;9.33;;;;;;;18.60;54.23;100159.59;1735468;81;21219;-54
2023/06/18 02:33:49;;;;;;;12.35;9.28;;;;;;;18.65;54.31;100172.76;1735463;81;21192;-54
2023/06/18 02:36:55;;;;;;;12.65;8.10;;;;;;;18.67;54.31;100173.38;1735618;82;21204;-53
2023/06/18 02:40:03;;;;;;;14.98;9.13;;;;;;;18.70;54.42;100172.38;1735509;81;21209;-55
2023/06/18 02:43:10;;;;;;;13.00;9.33;;;;;;;18.73;54.41;100171.91;1735712;81;21701;-55
2023/06/18 02:46:16;;;;;;;11.93;8.85;;;;;;;18.76;54.44;100183.92;1735821;81;21196;-55
2023/06/18 02:49:22;;;;;;;15.00;8.95;;;;;;;18.79;54.52;100175.13;1735763;81;21219;-53
2023/06/18 02:52:28;;;;;;;14.58;9.00;;;;;;;18.81;54.55;100172.13;1735688;81;21219;-54
2023/06/18 02:55:35;;;;;;;12.53;9.10;;;;;;;18.86;54.65;100181.98;1735728;82;21215;-55
2023/06/18 02:58:40;;;;;;;13.08;8.38;;;;;;;18.90;54.74;100179.06;1736802;80;21390;-54
2023/06/18 03:01:48;;;;;;;18.50;9.40;;;;;;;18.96;54.79;100180.33;1741466;81;21882;-55
2023/06/18 03:04:54;;;;;;;14.98;9.25;;;;;;;19.01;54.75;100176.31;1736053;81;21902;-55
2023/06/18 03:08:01;;;;;;;16.45;9.38;;;;;;;19.06;54.75;100182.00;1742948;82;21350;-54
2023/06/18 03:11:08;;;;;;;12.43;8.90;;;;;;;19.12;54.78;100176.89;1736069;82;21318;-56
2023/06/18 03:14:15;;;;;;;17.45;10.03;;;;;;;19.19;54.82;100176.80;1741780;81;21863;-54
2023/06/18 03:17:22;;;;;;;12.40;8.83;;;;;;;19.27;54.89;100173.69;1736092;81;21362;-55
2023/06/18 03:20:30;;;;;;;16.65;9.63;;;;;;;19.35;54.95;100177.55;1742450;81;21358;-55
2023/06/18 03:23:38;;;;;;;14.20;9.25;;;;;;;19.42;54.95;100174.14;1736219;81;21362;-54
2023/06/18 03:26:45;;;;;;;13.08;9.15;;;;;;;19.49;54.98;100175.42;1742653;81;21362;-56
2023/06/18 03:29:51;;;;;;;13.10;9.48;;;;;;;19.55;55.01;100174.45;1743132;81;21907;-53
2023/06/18 03:33:02;;;;;;;13.35;9.50;;;;;;;19.60;55.00;100173.20;1735978;82;21421;-55
2023/06/18 03:36:07;;;;;;;13.93;9.18;;;;;;;19.64;54.97;100177.18;1743253;81;21338;-55
2023/06/18 03:39:18;;;;;;;16.45;9.15;;;;;;;19.70;55.02;100180.38;1736058;82;21863;-54
2023/06/18 03:42:26;;;;;;;13.78;9.65;;;;;;;19.75;55.05;100177.73;1742283;81;21706;-54
2023/06/18 03:45:33;;;;;;;12.35;9.48;;;;;;;19.81;55.10;100182.33;1735973;81;21265;-55
2023/06/18 03:48:41;;;;;;;11.15;8.85;;;;;;;19.86;55.16;100173.58;1743197;82;21377;-54
2023/06/18 03:51:47;;;;;;;16.30;9.33;;;;;;;19.93;55.17;100177.64;1736191;82;21342;-56
2023/06/18 03:54:54;;;;;;;15.35;8.80;;;;;;;19.99;55.23;100172.50;1743030;81;21396;-55
2023/06/18 03:58:03;;;;;;;15.78;9.23;;;;;;;20.07;55.30;100179.08;1735259;82;21405;-54
2023/06/18 04:01:12;;;;;;;16.52;9.68;;;;;;;20.14;55.34;100179.28;1735584;82;21180;-58
2023/06/18 04:04:19;;;;;;;13.78;9.38;;;;;;;20.25;55.41;100184.52;1735649;82;21255;-55
2023/06/18 04:07:26;;;;;;;14.98;9.50;;;;;;;20.34;55.43;100178.91;1736298;81;21208;-54
2023/06/18 04:10:31;;;;;;;11.22;9.00;;;;;;;20.45;55.44;100173.88;1735863;81;21216;-55
2023/06/18 04:13:36;;;;;;;12.70;8.98;;;;;;;20.55;55.50;100187.45;1735595;81;21188;-53
2023/06/18 04:16:41;;;;;;;13.20;8.68;;;;;;;20.65;55.50;100188.20;1735610;81;21705;-54
2023/06/18 04:19:49;;;;;;;10.93;9.08;;;;;;;20.76;55.56;100180.38;1735538;81;21328;-53
2023/06/18 04:22:57;;;;;;;14.68;9.45;;;;;;;20.85;55.58;100181.70;1735823;81;21232;-54
2023/06/18 04:26:03;;;;;;;11.63;8.53;;;;;;;20.91;55.53;100179.30;1735684;81;21180;-55
2023/06/18 04:29:11;;;;;;;12.95;9.40;;;;;;;20.98;55.55;100182.80;1735602;82;21220;-54
2023/06/18 04:32:18;;;;;;;12.18;9.70;;;;;;;21.10;55.58;100183.62;1735612;81;21737;-53
2023/06/18 04:35:24;;;;;;;11.50;9.30;;;;;;;21.21;55.58;100184.11;1735629;82;21192;-55
2023/06/18 04:38:30;;;;;;;13.60;9.95;;;;;;;21.31;55.58;100178.70;1713446;82;21401;-53
2023/06/18 04:41:35;;;;;;;12.65;9.23;;;;;;;21.43;55.61;100186.47;1732464;82;21678;-54
2023/06/18 04:44:43;;;;;;;15.55;9.18;;;;;;;21.53;55.63;100185.23;1735651;81;21223;-54
2023/06/18 04:47:50;;;;;;;11.80;9.68;;;;;;;21.66;55.64;100190.48;1718558;82;21224;-54
2023/06/18 04:50:58;;;;;;;16.12;9.28;;;;;;;21.80;55.63;100189.09;1735565;81;21172;-54
2023/06/18 04:54:05;;;;;;;30.30;9.50;;;;;;;21.93;55.61;100192.08;1735733;82;21220;-54
2023/06/18 04:57:12;;;;;;;13.28;8.78;;;;;;;22.07;55.63;100194.84;1735596;81;21173;-54
2023/06/18 05:00:20;;;;;;;13.93;8.55;;;;;;;22.19;55.64;100195.03;1736279;81;21239;-54
2023/06/18 05:03:27;;;;;;;12.03;8.50;;;;;;;22.34;55.60;100196.35;1735737;82;21262;-55
2023/06/18 05:06:34;;;;;;;10.93;8.48;;;;;;;22.46;55.54;100201.25;1735213;81;21616;-55
2023/06/18 05:09:39;;;;;;;10.50;8.90;;;;;;;22.58;55.52;100207.05;1734961;82;21984;-55
2023/06/18 05:12:47;;;;;;;11.33;8.73;;;;;;;22.70;55.48;100211.13;1734768;82;21700;-55
2023/06/18 05:15:53;;;;;;;13.85;8.60;;;;;;;22.81;55.42;100208.75;1734826;81;21542;-54
2023/06/18 05:18:59;;;;;;;11.00;8.43;;;;;;;22.92;55.35;100210.56;1716605;82;21227;-57
2023/06/18 05:22:04;;;;;;;14.55;8.23;;;;;;;23.05;55.31;100208.78;1735033;82;21749;-56
2023/06/18 05:25:12;;;;;;;12.10;8.73;;;;;;;23.19;55.22;100218.44;1735618;81;21255;-56
2023/06/18 05:28:19;;;;;;;12.37;7.97;;;;;;;23.30;55.13;100207.70;1735580;82;21235;-55
2023/06/18 05:31:28;;;;;;;12.73;8.65;;;;;;;23.41;55.05;100215.08;1749985;80;21168;-55
2023/06/18 05:34:37;;;;;;;10.60;7.67;;;;;;;23.51;54.94;100219.39;1750218;81;21231;-55
2023/06/18 05:37:44;;;;;;;11.35;6.92;;;;;;;23.61;54.86;100227.31;1729485;81;21267;-55
2023/06/18 05:40:50;;;;;;;10.25;7.40;;;;;;;23.72;54.73;100235.80;1729485;81;21250;-55
2023/06/18 05:43:55;;;;;;;10.10;7.37;;;;;;;23.84;54.64;100235.06;1729589;81;21246;-55
2023/06/18 05:47:03;;;;;;;9.15;6.95;;;;;;;23.95;54.52;100233.50;1729256;82;21227;-54
2023/06/18 05:50:10;;;;;;;9.88;7.00;;;;;;;24.06;54.36;100239.50;1728896;81;21605;-55
2023/06/18 05:53:17;;;;;;;8.68;6.95;;;;;;;24.18;54.23;100235.12;1729050;83;21223;-55
2023/06/18 05:56:23;;;;;;;11.97;6.50;;;;;;;24.29;54.04;100239.69;1729217;81;21732;-56
2023/06/18 05:59:28;;;;;;;10.18;7.45;;;;;;;24.38;53.79;100245.06;1729613;81;21728;-54
2023/06/18 06:02:36;;;;;;;11.38;6.70;;;;;;;24.45;53.56;100240.91;1738966;80;21339;-56
2023/06/18 06:05:44;;;;;;;8.73;6.95;;;;;;;24.54;53.31;100247.70;1739662;82;21363;-57
2023/06/18 06:08:52;;;;;;;9.35;7.00;;;;;;;24.64;53.13;100250.55;1740170;81;21385;-57
2023/06/18 06:11:58;;;;;;;9.18;6.67;;;;;;;24.74;52.96;100258.20;1760276;81;22157;-56
2023/06/18 06:15:06;;;;;;;8.73;6.87;;;;;;;24.80;52.71;100253.76;1768274;80;21395;-54
2023/06/18 06:18:13;;;;;;;10.23;6.40;;;;;;;24.88;52.48;100250.44;1768569;80;21367;-54
2023/06/18 06:21:19;;;;;;;9.13;6.70;;;;;;;24.95;52.25;100256.66;1768810;81;21336;-54
2023/06/18 06:24:26;;;;;;;11.53;6.47;;;;;;;25.05;52.05;100253.87;1769074;81;21343;-56
2023/06/18 06:27:33;;;;;;;10.20;7.25;;;;;;;25.16;51.87;100263.73;1769398;81;21371;-55
2023/06/18 06:30:40;;;;;;;10.15;6.67;;;;;;;25.24;51.54;100261.27;1769302;81;21359;-54
2023/06/18 06:33:46;;;;;;;9.35;6.62;;;;;;;25.32;51.31;100264.94;1761968;81;21312;-54
2023/06/18 06:36:55;;;;;;;12.78;6.60;;;;;;;25.43;51.13;100264.44;1760650;81;21213;-55
2023/06/18 06:40:04;;;;;;;10.63;7.10;;;;;;;25.50;50.92;100266.43;1769800;79;21352;-55
2023/06/18 06:43:10;;;;;;;11.33;7.12;;;;;;;25.59;50.73;100271.77;1770478;79;21700;-56
2023/06/18 06:46:22;;;;;;;10.08;7.33;;;;;;;25.68;50.55;100261.69;1753698;81;21263;-56
2023/06/18 06:49:32;;;;;;;12.18;6.97;;;;;;;25.76;50.24;100263.95;1736713;81;21418;-56
2023/06/18 06:52:44;;;;;;;8.85;6.78;;;;;;;25.83;49.97;100260.33;1740382;82;21365;-56
2023/06/18 06:55:51;;;;;;;7.67;6.28;;;;;;;25.92;49.72;100265.66;1740421;82;21394;-53
2023/06/18 06:58:57;;;;;;;12.33;6.78;;;;;;;25.99;49.52;100269.05;1740252;81;21450;-54
2023/06/18 07:02:05;;;;;;;16.40;6.92;;;;;;;26.08;49.32;100259.83;1738725;82;21444;-54
2023/06/18 07:05:11;;;;;;;10.23;7.05;;;;;;;26.17;49.05;100269.36;1739333;81;21244;-54
2023/06/18 07:08:16;;;;;;;9.63;6.87;;;;;;;26.26;48.79;100269.06;1740002;81;21251;-56
2023/06/18 07:11:23;;;;;;;8.13;6.37;;;;;;;26.34;48.55;100268.50;1739834;82;21382;-55
2023/06/18 07:14:29;;;;;;;20.35;6.78;;;;;;;26.41;48.32;100266.81;1739176;80;21359;-56
2023/06/18 07:17:36;;;;;;;11.05;6.25;;;;;;;26.50;48.06;100274.13;1739820;82;22136;-57
2023/06/18 07:20:41;;;;;;;11.75;6.78;;;;;;;26.58;47.87;100266.50;1740281;82;21911;-55
2023/06/18 07:23:47;;;;;;;13.53;7.12;;;;;;;26.64;47.53;100271.86;1739819;81;21295;-54
2023/06/18 07:26:56;;;;;;;11.10;7.00;;;;;;;26.72;47.33;100281.11;1731553;82;21336;-56
2023/06/18 07:30:03;;;;;;;8.98;6.47;;;;;;;26.78;47.10;100280.00;1740294;81;21390;-53
2023/06/18 07:33:09;;;;;;;8.65;6.40;;;;;;;26.87;46.85;100278.28;1739973;81;21371;-54
2023/06/18 07:36:16;;;;;;;11.63;6.85;;;;;;;26.93;46.56;100279.09;1755458;81;21482;-55
2023/06/18 07:39:24;;;;;;;10.03;6.28;;;;;;;26.99;46.32;100280.20;1768598;80;21760;-54
2023/06/18 07:42:31;;;;;;;9.20;6.90;;;;;;;27.05;46.01;100277.65;1762202;80;21432;-55
2023/06/18 07:45:38;;;;;;;9.00;6.67;;;;;;;27.10;45.79;100283.26;1768906;80;21348;-53
2023/06/18 07:48:46;;;;;;;8.15;6.53;;;;;;;27.19;45.63;100277.90;1768855;79;21367;-53
2023/06/18 07:51:54;;;;;;;9.35;6.22;;;;;;;27.25;45.39;100272.52;1769742;80;21907;-55
2023/06/18 07:55:00;;;;;;;9.60;6.10;;;;;;;27.31;45.10;100276.47;1770629;79;21216;-54
2023/06/18 07:58:06;;;;;;;8.40;7.15;;;;;;;27.38;44.91;100275.60;1770395;79;21248;-55
2023/06/18 08:01:11;;;;;;;9.90;6.30;;;;;;;27.45;44.62;100277.52;1770690;80;21222;-54
2023/06/18 08:04:17;;;;;;;8.43;6.75;;;;;;;27.52;44.29;100272.44;1754299;80;21389;-55
2023/06/18 08:07:25;;;;;;;8.43;7.05;;;;;;;27.59;44.08;100272.94;1748544;81;21405;-54
2023/06/18 08:10:32;;;;;;;7.62;6.35;;;;;;;27.65;43.79;100274.58;1760153;79;21451;-56
2023/06/18 08:13:39;;;;;;;7.90;7.10;;;;;;;27.71;43.41;100267.83;1761823;79;21575;-55
2023/06/18 08:16:46;;;;;;;12.75;6.90;;;;;;;27.79;43.15;100272.83;1765743;81;21185;-58
2023/06/18 08:19:54;;;;;;;12.23;6.67;;;;;;;27.91;42.91;100281.52;1770171;80;21205;-56
2023/06/18 08:23:00;;;;;;;12.95;7.05;;;;;;;28.03;42.65;100265.09;1769870;81;21775;-56
2023/06/18 08:26:07;;;;;;;10.80;7.15;;;;;;;28.11;42.35;100276.58;1764379;81;21339;-58
2023/06/18 08:29:13;;;;;;;9.33;6.95;;;;;;;28.18;42.03;100279.06;1739521;81;21434;-55
2023/06/18 08:32:20;;;;;;;16.17;7.87;;;;;;;28.28;41.79;100280.36;1740045;82;21280;-55
2023/06/18 08:35:26;;;;;;;9.70;6.70;;;;;;;28.39;41.52;100281.95;1739843;82;21519;-54
2023/06/18 08:38:32;;;;;;;9.00;7.03;;;;;;;28.53;41.32;100285.80;1772219;79;21256;-55
2023/06/18 08:41:40;;;;;;;7.50;6.45;;;;;;;28.67;41.04;100278.36;1769582;80;21209;-54
2023/06/18 08:44:46;;;;;;;16.82;7.72;;;;;;;28.78;40.80;100272.89;1769505;79;21220;-53
2023/06/18 08:47:51;;;;;;;12.33;7.20;;;;;;;28.94;40.63;100280.02;1769748;79;21251;-56
2023/06/18 08:51:12;;;;;;;15.55;6.17;;;;;;;29.09;40.27;100272.28;1770004;80;21200;-55
2023/06/18 08:54:27;;;;;;;7.03;6.15;;;;;;;29.23;39.90;100276.05;1769632;79;21220;-56
2023/06/18 08:57:40;;;;;;;9.25;6.60;;;;;;;29.36;39.51;100275.04;1767644;81;21566;-55
2023/06/18 09:00:48;;;;;;;12.65;7.42;;;;;;;29.42;39.02;100276.09;1747998;81;21393;-54
2023/06/18 09:03:54;;;;;;;13.93;6.83;;;;;;;29.44;38.70;100273.81;1733270;83;21216;-57
2023/06/18 09:06:59;;;;;;;8.28;6.20;;;;;;;29.44;38.41;100268.73;1726596;82;21259;-57
2023/06/18 09:10:05;;;;;;;8.50;6.17;;;;;;;29.50;38.20;100273.16;1759970;79;21394;-57
2023/06/18 09:13:12;;;;;;;8.18;6.20;;;;;;;29.60;37.96;100264.56;1741701;81;21912;-56
2023/06/18 09:16:11;;;;;;;9.45;6.08;;;;;;;29.86;37.56;100256.84;1741393;82;21359;-55
2023/06/18 09:19:17;;;;;;;11.43;6.03;;;;;;;29.86;37.56;100256.84;1741190;81;21907;-54
2023/06/18 09:22:25;;;;;;;9.48;6.95;;;;;;;30.06;37.41;100252.88;1741959;81;21394;-55
2023/06/18 09:25:31;;;;;;;11.45;6.17;;;;;;;30.26;37.21;100259.62;1741367;82;21415;-56
2023/06/18 09:28:38;;;;;;;8.28;6.20;;;;;;;30.28;36.82;100248.30;1741496;81;21363;-54
2023/06/18 09:31:46;;;;;;;9.53;6.62;;;;;;;30.29;36.58;100256.18;1741629;82;21381;-55
2023/06/18 09:34:52;;;;;;;8.78;6.62;;;;;;;30.38;36.36;100253.75;1742292;81;21899;-56
2023/06/18 09:37:58;;;;;;;10.70;6.62;;;;;;;30.49;36.18;100248.78;1740670;81;21390;-58
2023/06/18 09:41:04;;;;;;;9.08;6.47;;;;;;;30.59;35.91;100255.08;1742075;81;21398;-55
2023/06/18 09:44:04;;;;;;;9.35;5.97;;;;;;;30.71;35.73;100248.08;1733110;81;21186;-55
2023/06/18 09:47:12;;;;;;;8.88;6.78;;;;;;;30.84;35.55;100238.81;1741592;81;21425;-55
2023/06/18 09:50:17;;;;;;;8.30;6.22;;;;;;;31.01;35.41;100239.88;1741530;82;21335;-57
2023/06/18 09:53:27;;;;;;;8.23;5.90;;;;;;;31.14;35.26;100245.27;1733741;81;21232;-55
2023/06/18 09:56:32;;;;;;;9.73;6.08;;;;;;;31.26;35.08;100242.73;1741344;81;21951;-56
2023/06/18 09:59:37;;;;;;;8.65;6.00;;;;;;;31.40;34.94;100235.09;1740677;81;21717;-56
2023/06/18 10:02:45;;;;;;;8.65;5.90;;;;;;;31.33;34.47;100242.62;1740846;81;21355;-54
2023/06/18 10:05:53;;;;;;;12.23;6.80;;;;;;;31.21;34.25;100246.52;1747334;80;21725;-54
2023/06/18 10:09:01;;;;;;;9.68;6.67;;;;;;;31.26;34.18;100237.08;1771854;79;21877;-55
2023/06/18 10:12:09;;;;;;;7.80;6.28;;;;;;;31.34;33.93;100233.55;1771749;80;21876;-55
2023/06/18 10:15:18;;;;;;;8.30;5.75;;;;;;;31.32;33.68;100229.62;1772117;79;21382;-55
2023/06/18 10:18:24;;;;;;;10.40;5.80;;;;;;;31.38;33.62;100231.17;1772032;79;21359;-54
2023/06/18 10:21:34;;;;;;;9.15;6.37;;;;;;;31.34;33.27;100227.88;1771950;80;21295;-55
2023/06/18 10:24:50;;;;;;;7.20;5.92;;;;;;;31.17;33.03;100235.59;1772316;79;21407;-55
2023/06/18 10:27:56;;;;;;;12.37;7.20;;;;;;;31.09;32.96;100227.84;1772677;79;21740;-57
2023/06/18 10:31:03;;;;;;;7.60;6.50;;;;;;;31.25;33.04;100232.59;1771959;80;21358;-56
2023/06/18 10:34:09;;;;;;;7.87;6.53;;;;;;;31.45;33.04;100225.94;1763437;80;21466;-56
2023/06/18 10:37:14;;;;;;;8.35;6.37;;;;;;;31.54;32.83;100228.87;1768126;80;21335;-56
2023/06/18 10:40:24;;;;;;;18.82;6.80;;;;;;;31.56;32.63;100227.37;1762625;81;21278;-56
2023/06/18 10:43:35;;;;;;;7.95;6.97;;;;;;;31.53;32.42;100222.36;1759898;79;21742;-55
2023/06/18 10:46:41;;;;;;;7.20;6.30;;;;;;;31.63;32.40;100228.36;1764219;81;21212;-56
2023/06/18 10:49:48;;;;;;;9.08;6.92;;;;;;;31.59;32.29;100225.89;1773174;79;21371;-55
2023/06/18 10:52:57;;;;;;;9.48;6.40;;;;;;;31.44;31.91;100224.84;1729103;79;21704;-55
2023/06/18 10:56:05;;;;;;;10.23;7.12;;;;;;;31.25;31.70;100219.29;1771883;80;22145;-54
2023/06/18 10:59:11;;;;;;;8.90;6.42;;;;;;;31.35;31.91;100223.92;1764521;80;21351;-55
2023/06/18 11:02:23;;;;;;;7.62;6.33;;;;;;;31.53;31.94;100222.92;1771454;80;21355;-55
2023/06/18 11:05:51;;;;;;;9.60;6.53;;;;;;;31.69;31.94;100229.91;1764738;80;21406;-54
2023/06/18 11:09:08;;;;;;;7.47;6.53;;;;;;;31.57;31.60;100226.81;1741762;81;21407;-55
2023/06/18 11:12:27;;;;;;;8.78;6.05;;;;;;;31.43;31.44;100226.00;1741847;82;21875;-56
2023/06/18 11:15:34;;;;;;;9.20;6.67;;;;;;;31.24;31.28;100230.92;1742032;82;21351;-55
2023/06/18 11:18:42;;;;;;;10.45;6.22;;;;;;;31.05;31.15;100228.78;1742435;81;21394;-56
2023/06/18 11:21:49;;;;;;;6.85;6.03;;;;;;;31.00;31.20;100228.28;1742135;82;21379;-56
2023/06/18 11:24:56;;;;;;;7.10;6.40;;;;;;;31.05;31.30;100227.37;1742009;81;21232;-54
2023/06/18 11:28:05;;;;;;;10.43;6.60;;;;;;;30.94;31.22;100229.55;1741612;81;21683;-55
2023/06/18 11:31:12;;;;;;;11.05;6.20;;;;;;;30.97;31.28;100231.74;1744426;81;21343;-54
2023/06/18 11:34:18;;;;;;;7.33;5.90;;;;;;;31.18;31.41;100225.09;1762083;80;21223;-55
2023/06/18 11:37:25;;;;;;;11.48;6.40;;;;;;;31.41;31.52;100226.29;1761703;81;21586;-55
2023/06/18 11:40:31;;;;;;;6.92;6.15;;;;;;;31.64;31.60;100218.14;1756967;81;21247;-55
2023/06/18 11:43:53;;;;;;;8.10;6.08;;;;;;;31.89;31.54;100216.70;1769995;79;21347;-55
2023/06/18 11:47:01;;;;;;;11.88;6.80;;;;;;;32.09;31.42;100218.21;1771891;80;21347;-55
2023/06/18 11:50:07;;;;;;;9.00;6.12;;;;;;;32.22;31.30;100221.56;1772280;79;21402;-55
2023/06/18 11:53:13;;;;;;;7.08;6.37;;;;;;;32.41;31.32;100222.23;1772496;79;21857;-56
2023/06/18 11:56:18;;;;;;;7.28;6.45;;;;;;;32.56;31.01;100215.56;1772270;80;21378;-55
2023/06/18 11:59:26;;;;;;;10.50;6.17;;;;;;;32.54;30.67;100214.23;1772391;79;21339;-55
2023/06/18 12:02:34;;;;;;;9.95;6.62;;;;;;;32.45;30.40;100218.42;1763780;81;21782;-55
2023/06/18 12:05:44;;;;;;;8.50;6.65;;;;;;;32.29;30.28;100220.52;1741598;82;21185;-55
2023/06/18 12:08:53;;;;;;;8.33;5.90;;;;;;;32.11;30.18;100216.75;1740159;80;21371;-56
2023/06/18 12:12:12;;;;;;;9.25;6.78;;;;;;;31.90;29.97;100211.32;1769260;80;21367;-54
2023/06/18 12:15:33;;;;;;;9.93;6.53;;;;;;;31.73;29.99;100219.64;1768968;80;21623;-55
2023/06/18 12:18:46;;;;;;;10.85;6.35;;;;;;;31.65;30.06;100218.98;1768920;80;21340;-56
2023/06/18 12:21:55;;;;;;;12.07;6.85;;;;;;;31.75;30.25;100222.40;1769129;80;21363;-55
2023/06/18 12:25:00;;;;;;;8.75;6.17;;;;;;;31.91;30.32;100217.23;1769354;81;21877;-54
2023/06/18 12:28:08;;;;;;;9.25;6.53;;;;;;;31.91;30.29;100218.08;1768719;80;21430;-55
2023/06/18 12:31:15;;;;;;;8.78;6.67;;;;;;;31.82;30.20;100222.81;1768829;81;22115;-54
2023/06/18 12:34:31;;;;;;;8.93;6.58;;;;;;;31.60;29.97;100216.27;1768512;81;21371;-55
2023/06/18 12:37:42;;;;;;;10.90;6.60;;;;;;;31.40;30.01;100226.05;1768413;80;21383;-56
2023/06/18 12:41:00;;;;;;;9.40;7.08;;;;;;;31.29;30.04;100220.88;1770333;80;21240;-54
2023/06/18 12:44:07;;;;;;;9.03;6.17;;;;;;;31.26;30.20;100221.52;1759629;79;21232;-55
2023/06/18 12:47:17;;;;;;;8.20;6.20;;;;;;;31.35;30.40;100211.19;1764975;81;21196;-54
2023/06/18 12:50:48;;;;;;;8.35;6.97;;;;;;;31.50;30.51;100208.00;1750724;80;21224;-55
2023/06/18 12:53:55;;;;;;;6.95;6.22;;;;;;;31.65;30.60;100212.72;1768749;79;21413;-54
2023/06/18 12:57:02;;;;;;;8.35;6.22;;;;;;;31.81;30.70;100208.94;1767731;81;21197;-55
2023/06/18 13:00:07;;;;;;;6.67;5.92;;;;;;;31.90;30.64;100205.66;1768500;81;21399;-55
2023/06/18 13:03:14;;;;;;;7.97;6.78;;;;;;;32.03;30.72;100200.52;1768923;81;21332;-54
2023/06/18 13:06:21;;;;;;;9.80;6.75;;;;;;;32.18;30.72;100200.11;1769751;80;21691;-55
2023/06/18 13:09:29;;;;;;;8.30;6.50;;;;;;;32.31;30.66;100200.63;1762019;80;21383;-54
2023/06/18 13:12:35;;;;;;;9.98;7.20;;;;;;;32.40;30.55;100202.95;1758882;81;21360;-54
2023/06/18 13:15:42;;;;;;;8.80;6.87;;;;;;;32.39;30.38;100194.78;1768803;80;21384;-55
2023/06/18 13:18:47;;;;;;;13.88;7.20;;;;;;;32.21;30.20;100205.70;1768844;80;21371;-57
2023/06/18 13:21:55;;;;;;;8.20;6.35;;;;;;;31.90;30.05;100209.30;1762525;80;21351;-56
2023/06/18 13:25:03;;;;;;;8.85;6.08;;;;;;;31.75;30.14;100204.56;1769298;81;21462;-54
2023/06/18 13:28:10;;;;;;;12.53;7.30;;;;;;;31.77;30.31;100207.92;1769567;79;21299;-54
2023/06/18 13:31:16;;;;;;;8.68;6.53;;;;;;;31.80;30.38;100201.61;1762787;81;21762;-57
2023/06/18 13:34:22;;;;;;;9.48;6.42;;;;;;;31.80;30.36;100193.13;1769906;79;21213;-55
2023/06/18 13:37:28;;;;;;;10.85;6.42;;;;;;;31.73;30.34;100206.90;1770128;80;21200;-55
2023/06/18 13:40:34;;;;;;;7.83;6.80;;;;;;;31.74;30.46;100204.31;1767197;80;21343;-56
2023/06/18 13:43:38;;;;;;;9.35;5.92;;;;;;;31.79;30.64;100195.70;1762830;79;21239;-55
2023/06/18 13:46:46;;;;;;;14.73;6.90;;;;;;;31.82;30.69;100197.33;1769767;79;21182;-55
2023/06/18 13:49:53;;;;;;;8.53;6.15;;;;;;;31.86;30.74;100199.80;1771102;79;21908;-56
2023/06/18 13:53:01;;;;;;;7.00;6.20;;;;;;;31.93;30.71;100201.61;1770499;80;21192;-56
2023/06/18 13:56:08;;;;;;;9.08;6.67;;;;;;;31.94;30.67;100195.34;1770167;81;21785;-56
2023/06/18 13:59:15;;;;;;;8.40;5.80;;;;;;;32.02;30.73;100198.83;1770628;79;21869;-55
2023/06/18 14:02:23;;;;;;;11.70;6.30;;;;;;;32.03;30.59;100200.52;1769653;79;21275;-55
2023/06/18 14:05:35;;;;;;;7.08;6.37;;;;;;;32.02;30.65;100201.66;1769611;80;21356;-56
2023/06/18 14:08:38;;;;;;;8.58;6.80;;;;;;;32.09;30.70;100202.63;1769877;79;21304;-55
2023/06/18 14:11:46;;;;;;;7.65;6.12;;;;;;;32.14;30.75;100196.27;1768145;79;21255;-55
2023/06/18 14:15:10;;;;;;;10.28;6.95;;;;;;;32.23;30.73;100198.57;1757381;81;21769;-53
2023/06/18 14:18:38;;;;;;;10.70;6.87;;;;;;;32.36;30.73;100192.00;1769886;79;21397;-54
2023/06/18 14:21:45;;;;;;;6.87;6.12;;;;;;;32.50;30.75;100190.51;1756866;81;21355;-55
2023/06/18 14:24:55;;;;;;;11.33;6.90;;;;;;;32.55;30.67;100185.55;1768870;79;21296;-54